WLW2296 SCEL-SCIP
Flight info
| Callsign | WLW2296 |
|---|---|
| Flight time | N/A |
| Altitude | 40000 |
| Route | DGO UL348 ASALA ASALA2A |
| Aircraft | A359/H-SDE2E3GHIJ3J4J5LM1ORWXY/LB1D1 |
Departure
| Time | N/A |
|---|---|
| Airport | Comodoro Arturo Merino Benítez International Airport (SCEL) |
Arrival
| Time | 2026-05-06 19:20 |
|---|---|
| Airport | Mataveri International Airport (SCIP) |
| Time | Latitude | Longitude | Altitude | Speed | Heading |
|---|---|---|---|---|---|
| 2026-05-06 19:02 | -27.54068 | -108.82129 | 18501 ft | 352 kts | 292° |
| 2026-05-06 19:02 | -27.53160 | -108.84686 | 18032 ft | 351 kts | 292° |
| 2026-05-06 19:02 | -27.52255 | -108.87231 | 17576 ft | 349 kts | 292° |
| 2026-05-06 19:03 | -27.51355 | -108.89764 | 17118 ft | 347 kts | 292° |
| 2026-05-06 19:03 | -27.50461 | -108.92277 | 16663 ft | 345 kts | 292° |
| 2026-05-06 19:03 | -27.49570 | -108.94778 | 16207 ft | 343 kts | 292° |
| 2026-05-06 19:03 | -27.48684 | -108.97264 | 15756 ft | 341 kts | 292° |
| 2026-05-06 19:04 | -27.47804 | -108.99731 | 15318 ft | 339 kts | 292° |
| 2026-05-06 19:04 | -27.46928 | -109.02184 | 14851 ft | 337 kts | 292° |
| 2026-05-06 19:04 | -27.46057 | -109.04622 | 14409 ft | 335 kts | 292° |
| 2026-05-06 19:04 | -27.45192 | -109.07045 | 13966 ft | 333 kts | 292° |
| 2026-05-06 19:05 | -27.44332 | -109.09453 | 13532 ft | 330 kts | 292° |
| 2026-05-06 19:05 | -27.43474 | -109.11850 | 13078 ft | 329 kts | 292° |
| 2026-05-06 19:05 | -27.42624 | -109.14225 | 12647 ft | 326 kts | 292° |
| 2026-05-06 19:05 | -27.41779 | -109.16584 | 12214 ft | 324 kts | 291° |
| 2026-05-06 19:06 | -27.40941 | -109.18925 | 11786 ft | 321 kts | 291° |
| 2026-05-06 19:06 | -27.40106 | -109.21248 | 11337 ft | 320 kts | 291° |
| 2026-05-06 19:06 | -27.39275 | -109.23562 | 10913 ft | 318 kts | 291° |
| 2026-05-06 19:06 | -27.38452 | -109.25855 | 10620 ft | 311 kts | 291° |
| 2026-05-06 19:07 | -27.37660 | -109.28059 | 10487 ft | 297 kts | 291° |
| 2026-05-06 19:07 | -27.37138 | -109.29459 | 10396 ft | 289 kts | 294° |
| 2026-05-06 19:07 | -27.35623 | -109.31814 | 10242 ft | 283 kts | 315° |
| 2026-05-06 19:07 | -27.34434 | -109.33626 | 10142 ft | 294 kts | 295° |
| 2026-05-06 19:08 | -27.33886 | -109.35820 | 9708 ft | 292 kts | 278° |
| 2026-05-06 19:08 | -27.33662 | -109.38103 | 9194 ft | 294 kts | 275° |
| 2026-05-06 19:08 | -27.33494 | -109.40395 | 8711 ft | 294 kts | 275° |
| 2026-05-06 19:08 | -27.33318 | -109.42681 | 8265 ft | 292 kts | 278° |
| 2026-05-06 19:09 | -27.32817 | -109.44877 | 7831 ft | 288 kts | 292° |
| 2026-05-06 19:09 | -27.32058 | -109.46950 | 7418 ft | 285 kts | 295° |
| 2026-05-06 19:09 | -27.31271 | -109.48983 | 7015 ft | 282 kts | 295° |
| 2026-05-06 19:09 | -27.30754 | -109.50319 | 6721 ft | 281 kts | 295° |
| 2026-05-06 19:10 | -27.29983 | -109.52325 | 6299 ft | 278 kts | 295° |
| 2026-05-06 19:10 | -27.29224 | -109.54321 | 5902 ft | 276 kts | 295° |
| 2026-05-06 19:10 | -27.28479 | -109.56294 | 5495 ft | 273 kts | 295° |
| 2026-05-06 19:10 | -27.27738 | -109.58252 | 5038 ft | 272 kts | 295° |
| 2026-05-06 19:11 | -27.26996 | -109.60202 | 4614 ft | 270 kts | 295° |
| 2026-05-06 19:11 | -27.26256 | -109.62142 | 4189 ft | 269 kts | 295° |
| 2026-05-06 19:11 | -27.25517 | -109.64066 | 3752 ft | 268 kts | 295° |
| 2026-05-06 19:11 | -27.24780 | -109.65986 | 3321 ft | 266 kts | 295° |
| 2026-05-06 19:12 | -27.24044 | -109.67890 | 2900 ft | 265 kts | 295° |
| 2026-05-06 19:12 | -27.23310 | -109.69778 | 2471 ft | 263 kts | 295° |
| 2026-05-06 19:12 | -27.22576 | -109.71663 | 2082 ft | 263 kts | 295° |
| 2026-05-06 19:12 | -27.21817 | -109.73524 | 1972 ft | 261 kts | 300° |
| 2026-05-06 19:13 | -27.20725 | -109.75139 | 1966 ft | 259 kts | 319° |
| 2026-05-06 19:13 | -27.19198 | -109.76163 | 1964 ft | 255 kts | 344° |
| 2026-05-06 19:13 | -27.17454 | -109.76289 | 1970 ft | 252 kts | 12° |
| 2026-05-06 19:13 | -27.15891 | -109.75456 | 1973 ft | 251 kts | 41° |
| 2026-05-06 19:14 | -27.14840 | -109.73906 | 1966 ft | 251 kts | 61° |
| 2026-05-06 19:14 | -27.14061 | -109.72147 | 1964 ft | 252 kts | 64° |
| 2026-05-06 19:14 | -27.13313 | -109.70372 | 1964 ft | 251 kts | 64° |
| 2026-05-06 19:14 | -27.12556 | -109.68600 | 1965 ft | 252 kts | 64° |
| 2026-05-06 19:15 | -27.11810 | -109.66864 | 1960 ft | 244 kts | 64° |
| 2026-05-06 19:15 | -27.11093 | -109.65211 | 1957 ft | 226 kts | 63° |
| 2026-05-06 19:15 | -27.10426 | -109.63686 | 1954 ft | 210 kts | 63° |
| 2026-05-06 19:15 | -27.09809 | -109.62276 | 1952 ft | 193 kts | 63° |
| 2026-05-06 19:16 | -27.09324 | -109.60927 | 1958 ft | 184 kts | 72° |
| 2026-05-06 19:16 | -27.09101 | -109.59520 | 1963 ft | 184 kts | 86° |
| 2026-05-06 19:16 | -27.09200 | -109.58089 | 1969 ft | 185 kts | 100° |
| 2026-05-06 19:16 | -27.09619 | -109.56717 | 1970 ft | 187 kts | 113° |
| 2026-05-06 19:17 | -27.10235 | -109.55430 | 1968 ft | 188 kts | 119° |
| 2026-05-06 19:17 | -27.10882 | -109.54156 | 1885 ft | 187 kts | 115° |
| 2026-05-06 19:17 | -27.11472 | -109.52887 | 1728 ft | 179 kts | 116° |
| 2026-05-06 19:17 | -27.12050 | -109.51673 | 1507 ft | 174 kts | 116° |
| 2026-05-06 19:18 | -27.12613 | -109.50490 | 1295 ft | 169 kts | 116° |
| 2026-05-06 19:18 | -27.13152 | -109.49354 | 1101 ft | 161 kts | 116° |
| 2026-05-06 19:18 | -27.13658 | -109.48286 | 937 ft | 153 kts | 116° |
| 2026-05-06 19:18 | -27.14145 | -109.47258 | 766 ft | 146 kts | 116° |
| 2026-05-06 19:19 | -27.14610 | -109.46277 | 625 ft | 139 kts | 116° |
| 2026-05-06 19:19 | -27.15057 | -109.45352 | 461 ft | 131 kts | 117° |
| 2026-05-06 19:19 | -27.15460 | -109.44440 | 293 ft | 131 kts | 112° |
| 2026-05-06 19:19 | -27.15867 | -109.43522 | 168 ft | 133 kts | 115° |
| 2026-05-06 19:20 | -27.16252 | -109.42681 | 150 ft | 103 kts | 117° |
| 2026-05-06 19:20 | -27.16530 | -109.42069 | 152 ft | 77 kts | 117° |
| 2026-05-06 19:20 | -27.16680 | -109.41739 | 152 ft | 36 kts | 115° |
| 2026-05-06 19:20 | -27.16788 | -109.41495 | 151 ft | 35 kts | 116° |
| 2026-05-06 19:21 | -27.16899 | -109.41254 | 151 ft | 35 kts | 117° |
| 2026-05-06 19:21 | -27.17013 | -109.41004 | 150 ft | 37 kts | 118° |
| 2026-05-06 19:21 | -27.17077 | -109.40829 | 150 ft | 13 kts | 76° |
| 2026-05-06 19:21 | -27.17084 | -109.40781 | 150 ft | 2 kts | 171° |
| 2026-05-06 19:22 | -27.17096 | -109.40789 | 150 ft | 2 kts | 218° |
| 2026-05-06 19:22 | -27.17091 | -109.40830 | 150 ft | 10 kts | 291° |
| 2026-05-06 19:22 | -27.17046 | -109.40929 | 150 ft | 16 kts | 297° |
| 2026-05-06 19:22 | -27.16989 | -109.41053 | 150 ft | 20 kts | 297° |
| 2026-05-06 19:23 | -27.16922 | -109.41200 | 150 ft | 22 kts | 295° |
| 2026-05-06 19:23 | -27.16851 | -109.41362 | 151 ft | 24 kts | 298° |
| 2026-05-06 19:23 | -27.16771 | -109.41538 | 152 ft | 26 kts | 296° |
| 2026-05-06 19:23 | -27.16685 | -109.41727 | 152 ft | 28 kts | 298° |
| 2026-05-06 19:24 | -27.16592 | -109.41930 | 153 ft | 30 kts | 297° |
| 2026-05-06 19:24 | -27.16492 | -109.42149 | 151 ft | 33 kts | 297° |
| 2026-05-06 19:24 | -27.16385 | -109.42384 | 150 ft | 35 kts | 296° |
| 2026-05-06 19:24 | -27.16274 | -109.42634 | 150 ft | 36 kts | 296° |
| 2026-05-06 19:25 | -27.16176 | -109.42847 | 151 ft | 15 kts | 295° |
| 2026-05-06 19:25 | -27.16103 | -109.42874 | 152 ft | 11 kts | 19° |
| 2026-05-06 19:25 | -27.16019 | -109.42851 | 152 ft | 13 kts | 359° |
| 2026-05-06 19:25 | -27.16014 | -109.42851 | 152 ft | 0 kts | 359° |
| 2026-05-06 19:26 | -27.15974 | -109.42942 | 152 ft | 0 kts | 9° |